Duarte Ribeiro

Recruteur en chef - AVS
19 Nov 2028
Dimanche
Processus

Personnalité

Adaptabilité (10) Ambition (7) Controverse (9) Loyauté (1) Pression (17) Professionnalisme (9) Sportivité (18) Tempérament (16)

Profil

Style d'entraînement Démocratique
Diplôme Continental A
Détermination 11
Gestion des joueurs 5
Motivation 9
Discipline 5
Satisfaction professionnelle
100%
Fatigue
0%
Rôle Recruteur en chef
Salaire 43.6K p/s
Contrat 14.03.2029

Performance

Comportement Bon
Efficacité de l'entraînement
41%
Développement des joueurs
55%
Prévention des blessures
60%
Mise en place tactique
45%

Événements récents

A participé à une réunion de recrutement maintenant
A participé à une réunion de recrutement maintenant
A recommandé une cible de transfert maintenant
A voté contre une cible de transfert maintenant
A recommandé une cible de transfert maintenant
A recommandé une cible de transfert 7j
A recommandé une cible de transfert 7j
A recommandé une cible de transfert 7j

Suivi en cours

126
Joueur Club Statut Capacité Confiance Observé Dernière observation Dernier vote
Mao Hosoya Santos Actif 134 / 135 67% 1 01.01.2028 Approuver
Auwalu Ali Malam Kano Pillars Actif 106 / 91 40% 1 30.08.2027 -
Agustín Alaniz Rentistas Actif 127 / 124 40% 1 30.08.2027 -
Cristian Barros Cerro Actif 119 / 117 40% 1 10.08.2027 -
Mees Rijks Bristol Rovers Actif 125 / 126 40% 1 02.08.2027 -
Vinícius Lopes Santa Clara Actif 116 / 131 40% 3 21.07.2027 -
Stephen Humphrys Bradford City Actif 108 / 107 40% 1 21.07.2027 -
Patson Daka Leicester City Actif 128 / 138 40% 1 12.07.2027 -
Carlton Morris Derby County Actif 133 / 128 40% 1 07.07.2027 -
Callum O'Hare Sheffield United Actif 141 / 145 40% 1 07.07.2027 -
Victor Andersson Vitoria Guimaraes Actif 113 / 128 58% 1 05.07.2027 -
Johannes Eggestein Orlando City Actif 125 / 125 68% 1 01.06.2027 Approuver
Samuel Edozie Southampton Actif 138 / 121 40% 2 28.05.2027 -
Juanlu Bournemouth Actif 144 / 148 40% 2 28.05.2027 -
Derensili Sanches Fernandes Huddersfield Town Actif 119 / 113 40% 2 27.05.2027 -
Mohamed-Ali Cho Hull City Actif 128 / 145 40% 2 27.05.2027 -
Max Johnston Derby County Actif 123 / 139 40% 3 26.05.2027 -
Ali Ahmed Norwich City Actif 130 / 133 40% 1 26.05.2027 -
Juan Bezerra Zamalek Actif 122 / 111 40% 2 22.05.2027 -
Bobby Clark Derby County Actif 132 / 136 40% 2 22.05.2027 -
Jack Rudoni Coventry City Actif 138 / 127 40% 2 16.05.2027 -
Brooke Norton-Cuffy Hull City Actif 138 / 141 40% 1 16.05.2027 -
Finn Azaz Southampton Actif 135 / 132 40% 3 14.05.2027 -
Welington Southampton Actif 132 / 134 40% 1 14.05.2027 -
Tony Springett Cheltenham Town Actif 104 / 100 40% 2 13.05.2027 -
Chemsdine Talbi Sunderland Actif 152 / 156 40% 3 09.05.2027 -
Sam Greenwood Bristol City Actif 130 / 129 40% 1 05.05.2027 -
Ole Pohlmann Rio Ave Actif 115 / 119 40% 4 02.05.2027 -
Malik Mothersille Stockport County Actif 115 / 111 40% 1 02.05.2027 -
Sorriso Famalicao Actif 140 / 121 40% 5 30.04.2027 -
Isaiah Jones Luton Town Actif 129 / 122 40% 3 29.04.2027 -
Lorougnon Gohi Académico de Viseu Actif 110 / 124 40% 2 29.04.2027 -
Rafik Guitane Estoril Praia Actif 139 / 142 40% 5 27.04.2027 -
Santi García Gil Vicente Actif 132 / 123 40% 1 26.04.2027 -
Yanis Begraoui Estoril Praia Actif 129 / 128 40% 2 23.04.2027 -
Richard Koné Queens Park Rangers Actif 124 / 128 40% 1 22.04.2027 -
Jackson Muleka Konyaspor Actif 118 / 115 40% 1 22.04.2027 -
Alex Scott Bournemouth Actif 159 / 152 40% 3 21.04.2027 -
Alex Robertson Cardiff City Actif 127 / 115 40% 1 16.04.2027 -
Manu Pozo Torreense Actif 117 / 130 40% 3 15.04.2027 -
Jordan Holsgrove Estoril Praia Actif 133 / 138 40% 2 15.04.2027 -
Tyrese Campbell Sheffield United Actif 134 / 117 40% 4 14.04.2027 -
Habib Diarra Sunderland Actif 135 / 133 40% 1 11.04.2027 -
Scott Twine Bristol City Actif 129 / 114 40% 3 10.04.2027 -
Erick Pulga Bahia Actif 143 / 122 40% 1 02.04.2027 -
Dale Taylor Blackpool Actif 100 / 118 40% 1 30.03.2027 -
João Mendes Vitoria Guimaraes Actif 128 / 107 40% 1 30.03.2027 -
Kevin Fulham Actif 146 / 151 40% 2 27.03.2027 -
Daniel Kyerewaa Reading Actif 104 / 109 40% 1 26.03.2027 -
Martín Tejón Maritimo Actif 122 / 120 40% 1 24.03.2027 -
Marcelo Allende Mamelodi Sundowns Actif 140 / 123 40% 1 23.03.2027 -
Savinho Tottenham Actif 162 / 149 40% 3 15.03.2027 -
Bongani Zungu Ajax Cape Town Actif 128 / 122 40% 1 14.03.2027 -
Justo Giani Umraniyespor Actif 119 / 116 40% 1 13.03.2027 -
Malik Sellouki Rio Ave Actif 105 / 107 40% 1 12.03.2027 -
Tiago Freitas Benfica Actif 107 / 123 40% 1 09.03.2027 -
James Dornelly Peterborough United Actif 107 / 116 40% 1 09.03.2027 -
Cian Ashford Cardiff City Actif 119 / 110 40% 1 03.03.2027 -
Ilias Sebaoui Sint-Truiden Actif 135 / 139 40% 1 02.03.2027 -
Bradley Zwane SuperSport United Actif 122 / 106 40% 1 27.02.2027 -
Gustavo Silva Vitoria Guimaraes Actif 119 / 129 40% 1 20.02.2027 -
Peter Federico Gornik Zabrze Actif 129 / 135 40% 2 17.02.2027 -
Simo Maritimo Actif 108 / 119 40% 1 17.02.2027 -
Francisco França Felgueiras Actif 102 / 101 55% 1 25.01.2027 -
Sampson Dweh Mallorca Actif 133 / 134 66% 1 01.01.2027 Approuver
Víctor Gómez Braga Actif 138 / 138 66% 1 01.01.2027 Approuver
Mateus Mané Burnley Actif 133 / 125 40% 1 30.12.2026 -
Joseph George Aigle Royal de Moungo Actif 98 / 79 40% 1 29.12.2026 -
Sindre Walle Egeli Udinese Actif 124 / 125 40% 3 28.12.2026 -
Mathys Tel Tottenham Actif 141 / 141 40% 1 28.12.2026 -
Tiago Pucciarelli IF Elfsborg Actif 108 / 93 40% 1 27.12.2026 -
Will Lankshear Middlesbrough Actif 123 / 131 40% 1 26.12.2026 -
Rocco Vata Watford Actif 111 / 136 40% 4 24.12.2026 -
Miloš Jovičić Zabbar St. Patrick Actif 86 / 104 40% 2 24.12.2026 -
Lucas Lima Ceará Actif 105 / 111 40% 1 24.12.2026 -
Jalal Abdullai Molde Actif 97 / 124 40% 2 18.12.2026 -
Jordan van der Gaag Leiria Actif 114 / 105 40% 1 18.12.2026 -
Leo Castledine Middlesbrough Actif 132 / 139 40% 6 17.12.2026 -
Mikel Gogorza Brondby Actif 117 / 123 40% 4 14.12.2026 -
Matías Contrera Hrvatski Dragovoljac Actif 88 / 93 40% 2 13.12.2026 -
Nazif Inoussa Benfica Actif 77 / 71 67% 1 12.12.2026 Refuser
Ramiro Sordo Santos Laguna Actif 132 / 140 40% 2 10.12.2026 -
Markus Jensen Nacional Actif 117 / 122 40% 2 06.12.2026 -
Jocelin Ta Bi Sunderland Actif 116 / 126 40% 1 05.12.2026 -
George Brown Sheffield Wednesday Actif 93 / 95 40% 2 03.12.2026 -
Sam Amo-Ameyaw RC Strasbourg Actif 123 / 120 40% 1 01.12.2026 -
Dilan Neves Benfica Actif 64 / 71 40% 1 27.11.2026 -
Víctor Guzmán Sporting CP Actif 89 / 86 40% 2 24.11.2026 -
Marko Brkić NK Krka Actif 80 / 101 40% 1 23.11.2026 -
Alexander Lyng SonderjyskE Actif 126 / 138 40% 1 19.11.2026 -
Gabriel Monjes Hamrun Spartans Actif 82 / 81 40% 1 18.11.2026 -
Noni Madueke Arsenal Actif 144 / 144 40% 1 16.11.2026 -
Ousseynou Seck Randers Actif 97 / 111 40% 1 12.11.2026 -
Youssoufa Moukoko FC Copenhagen Actif 130 / 113 40% 8 10.11.2026 -
Roberto Fernández Braga Actif 151 / 127 40% 5 07.11.2026 Observer
Bogdan Petrović TSC Actif 109 / 111 40% 1 28.10.2026 -
Benjamin Kanurić Grodig Actif 98 / 121 40% 2 27.10.2026 -
Caio Wesley Fortaleza Actif 81 / 71 40% 1 27.10.2026 -
Juan Sierra La Equidad Actif 128 / 113 40% 1 23.10.2026 -
Ryan Oné Sheffield United Actif 97 / 129 40% 1 11.10.2026 -
Tyrhys Dolan Espanyol Actif 133 / 134 40% 1 08.10.2026 -
Alexis Cuello San Lorenzo Actif 136 / 137 40% 1 05.10.2026 -
Martín Ojeda Orlando City Actif 129 / 114 40% 1 05.10.2026 -
Mason Mount Manchester United Actif 155 / 163 40% 1 05.10.2026 -
Yankuba Minteh Brighton Actif 154 / 148 40% 1 30.09.2026 -
Antony Portland Timbers Actif 131 / 111 40% 2 29.09.2026 -
Carlos Forbs Club Brugge Actif 121 / 142 40% 1 29.09.2026 -
Oswin Appollis Orlando Pirates Actif 110 / 133 40% 1 27.09.2026 -
Ezekiel Kwame Alladoh Philadelphia Union Actif 122 / 100 40% 1 25.09.2026 -
Cheikh Sabaly Vancouver Whitecaps Actif 136 / 144 40% 1 21.09.2026 -
Camilo Martinez Cortulua Actif 130 / 110 40% 1 20.09.2026 -
Sorba Thomas Stoke City Actif 129 / 123 40% 1 20.09.2026 -
Valentín Depietri Talleres Actif 116 / 129 40% 1 17.09.2026 -
Elias Achouri San Diego Football Club Actif 126 / 110 40% 1 17.09.2026 -
Dylan Cabral Arsenal Actif 78 / 95 40% 1 16.09.2026 -
Alejandro Piedrahita Deportivo Pereira Actif 105 / 144 40% 1 16.09.2026 -
Tariq Lamptey Queens Park Rangers Actif 125 / 122 40% 1 15.09.2026 -
Georginio Rutter Brighton Actif 137 / 146 40% 2 13.09.2026 -
Soma Anzai FC Tokyo Actif 102 / 135 40% 1 13.09.2026 -
Matt O'Riley Brighton Actif 137 / 130 40% 1 11.09.2026 -
Matthew Bailey Arsenal Actif 85 / 79 40% 1 10.09.2026 -
Matías Fernández Independiente Rivadavia Actif 119 / 137 40% 1 08.09.2026 -
Juan Cruz de los Santos Nacional Actif 133 / 136 40% 1 07.09.2026 -
Alex Vigo Independiente Rivadavia Actif 125 / 117 40% 1 07.09.2026 -
Santiago Fernández Talleres Actif 130 / 136 40% 1 31.08.2026 -
Simphiwe Selepe Orlando Pirates Actif 113 / 107 40% 1 24.08.2026 -